Flight Track Log - Related Links

Times and Time Zones

All times are in EDT time to prevent confusion due to time zone crossing. See the SNC8107 flight status page for this flight to view local times or setup timezone preferences in your user account.

Time Position Orientation Groundspeed Altitude Reporting Facility
EDT Latitude Longitude Course Direction KTS MPH feet Rate Location/Type
Mon 09:47:00 AM 18.4333 -65.9667 62° Northeast 110 127 1,100  Level San Juan Center
Mon 09:48:00 AM 18.4500 -65.9333 62° Northeast 140 161 1,800 645 Climbing San Juan Center
Mon 09:49:01 AM 18.4667 -65.9000 62° Northeast 140 161 2,400 600 Climbing San Juan Center
Mon 09:50:00 AM 18.4833 -65.8667 62° Northeast 150 173 3,000 600 Climbing San Juan Center
Mon 09:51:01 AM 18.5000 -65.8333 62° Northeast 150 173 3,600 645 Climbing San Juan Center
Mon 09:52:01 AM 18.5167 -65.7833 71° East 150 173 4,300 700 Climbing San Juan Center
Mon 09:53:01 AM 18.5167 -65.7333 90° East 150 173 5,000 347 Climbing San Juan Center
Mon 09:54:02 AM 18.5167 -65.6833 90° East 180 207 5,000  Level San Juan Center
Mon 09:55:02 AM 18.5167 -65.6333 90° East 190 219 5,000  Level San Juan Center
Mon 09:56:02 AM 18.5000 -65.5833 109° East 190 219 5,000  Level San Juan Center
Mon 09:57:03 AM 18.4667 -65.5333 125° Southeast 200 230 5,000 -198 Level San Juan Center
Mon 09:58:03 AM 18.4500 -65.4833 109° East 200 230 4,600 -600 Descending San Juan Center
Mon 09:59:03 AM 18.4167 -65.4333 125° Southeast 200 230 3,800 -893 Descending San Juan Center
Mon 10:00:04 AM 18.3833 -65.3667 118° Southeast 200 230 2,800 -496 Descending San Juan Center
Mon 10:01:04 AM 18.3667 -65.3333 118° Southeast 190 219 2,800  Level San Juan Center
Mon 10:02:04 AM 18.3500 -65.2833 109° East 180 207 2,800 -50 Level San Juan Center
Mon 10:03:05 AM 18.3167 -65.2333 125° Southeast 180 207 2,700 -50 Descending San Juan Center
Mon 10:04:05 AM 18.3167 -65.1833 90° East 180 207 2,700  Level San Juan Center
Mon 10:05:05 AM 18.3167 -65.1167 90° East 180 207 2,700 -298 Level San Juan Center
Mon 10:06:06 AM 18.3333 -65.0833 62° Northeast 150 173 2,100 -694 Descending San Juan Center
Mon 10:07:06 AM 18.3333 -65.0333 90° East 130 150 1,300 -800 Descending San Juan Center
Mon 10:08:06 AM 18.3333 -65.0000 90° East 120 138 500 -800 Descending San Juan Center

Login

Don't have an account? Register now (free) for customized features, flight alerts, and more!